Time;durP1;ratioP1;P1;durP2;ratioP2;P2;SDS_P1;SDS_P2;PMS_P1;PMS_P2;Temp;Humidity;BMP_temperature;BMP_pressure;BME280_temperature;BME280_humidity;BME280_pressure;Samples;Min_cycle;Max_cycle;Signal;HPM_P1;HPM_P2
2023/11/22 00:01:12;;;;;;;0.50;0.40;;;5.60;99.90;;;;;;5045211;28;20203;-81
2023/11/22 00:03:39;;;;;;;0.50;0.40;;;5.50;99.90;;;;;;5042837;28;20634;-80
2023/11/22 00:06:07;;;;;;;0.50;0.40;;;5.50;99.90;;;;;;5042700;28;20218;-81
2023/11/22 00:08:34;;;;;;;0.70;0.70;;;5.40;99.90;;;;;;5034716;28;20247;-80
2023/11/22 00:11:00;;;;;;;0.85;0.85;;;5.40;99.90;;;;;;5042532;28;20706;-81
2023/11/22 00:13:29;;;;;;;0.50;0.40;;;5.30;99.90;;;;;;5044979;28;20685;-80
2023/11/22 00:15:56;;;;;;;0.50;0.50;;;5.20;99.90;;;;;;5045562;28;20215;-80
2023/11/22 00:18:24;;;;;;;0.50;0.40;;;5.20;99.90;;;;;;5043971;28;20261;-80
2023/11/22 00:20:51;;;;;;;0.50;0.40;;;5.20;99.90;;;;;;5042265;28;20195;-80
2023/11/22 00:23:17;;;;;;;0.50;0.40;;;5.20;99.90;;;;;;5043591;28;20196;-81
2023/11/22 00:25:44;;;;;;;0.50;0.40;;;5.10;99.90;;;;;;5045543;28;20198;-80
2023/11/22 00:28:12;;;;;;;0.50;0.40;;;5.00;99.90;;;;;;5045075;28;20215;-79
2023/11/22 00:30:40;;;;;;;0.50;0.40;;;5.00;99.90;;;;;;5041994;28;20203;-81
2023/11/22 00:33:07;;;;;;;0.50;0.40;;;5.00;99.90;;;;;;5042628;28;20203;-80
2023/11/22 00:35:33;;;;;;;2.33;1.85;;;4.90;99.90;;;;;;5044866;28;20215;-81
2023/11/22 00:38:00;;;;;;;0.50;0.40;;;4.90;99.90;;;;;;5045840;28;20215;-81
2023/11/22 00:40:27;;;;;;;0.50;0.40;;;4.90;99.90;;;;;;5043212;28;20195;-80
2023/11/22 00:42:54;;;;;;;1.15;1.15;;;4.80;99.90;;;;;;5041881;28;20196;-81
2023/11/22 00:45:21;;;;;;;0.50;0.40;;;4.70;99.90;;;;;;5042925;28;20198;-80
2023/11/22 00:47:50;;;;;;;0.50;0.40;;;4.60;99.90;;;;;;5045581;28;20320;-81
2023/11/22 00:50:19;;;;;;;2.78;2.67;;;4.60;99.90;;;;;;5044857;28;20206;-81
2023/11/22 00:52:46;;;;;;;0.47;0.40;;;4.60;99.90;;;;;;5041913;28;20202;-81
2023/11/22 00:55:13;;;;;;;1.48;0.90;;;4.50;99.90;;;;;;5041390;28;20658;-79
2023/11/22 00:57:40;;;;;;;1.27;1.17;;;4.40;99.90;;;;;;5045832;28;20215;-81
2023/11/22 01:00:09;;;;;;;0.50;0.40;;;4.40;99.90;;;;;;5045710;28;20203;-80
2023/11/22 01:02:37;;;;;;;0.68;0.68;;;4.40;99.90;;;;;;5042634;28;20192;-81
2023/11/22 01:05:09;;;;;;;0.50;0.40;;;4.30;99.90;;;;;;5042009;28;20196;-80
2023/11/22 01:07:36;;;;;;;0.50;0.50;;;4.30;99.90;;;;;;5042024;28;20350;-81
2023/11/22 01:10:03;;;;;;;0.50;0.40;;;4.40;99.90;;;;;;5042380;28;20208;-81
2023/11/22 01:12:30;;;;;;;0.50;0.40;;;4.40;99.90;;;;;;5044346;28;20203;-81
2023/11/22 01:14:56;;;;;;;0.50;0.40;;;4.40;99.90;;;;;;5045698;28;20218;-81
2023/11/22 01:17:23;;;;;;;0.50;0.40;;;4.30;99.90;;;;;;5043952;28;20223;-80
2023/11/22 01:19:52;;;;;;;0.50;0.40;;;4.30;99.90;;;;;;5041815;28;20203;-80
2023/11/22 01:22:20;;;;;;;0.50;0.40;;;4.40;99.90;;;;;;5042434;28;20195;-80
2023/11/22 01:24:47;;;;;;;0.50;0.40;;;4.30;99.90;;;;;;5045490;28;20196;-80
2023/11/22 01:27:14;;;;;;;0.50;0.40;;;4.30;99.90;;;;;;5045428;28;20214;-81
2023/11/22 01:29:41;;;;;;;0.50;0.40;;;4.20;99.90;;;;;;5045830;28;20195;-80
2023/11/22 01:32:08;;;;;;;0.50;0.40;;;4.20;99.90;;;;;;5045441;28;20191;-81
2023/11/22 01:34:35;;;;;;;0.50;0.40;;;4.10;99.90;;;;;;5042769;28;20223;-80
2023/11/22 01:37:02;;;;;;;0.50;0.47;;;4.10;99.90;;;;;;5041619;28;20227;-82
2023/11/22 01:39:31;;;;;;;0.50;0.40;;;4.10;99.90;;;;;;5042201;28;20199;-81
2023/11/22 01:41:58;;;;;;;0.50;0.40;;;4.10;99.90;;;;;;5042481;28;20202;-81
2023/11/22 01:44:27;;;;;;;0.50;0.40;;;4.20;99.90;;;;;;5043949;28;20222;-81
2023/11/22 01:46:55;;;;;;;0.50;0.40;;;4.20;99.90;;;;;;5045569;28;20579;-81
2023/11/22 01:49:23;;;;;;;0.50;0.40;;;4.30;99.90;;;;;;5044836;28;20195;-79
2023/11/22 01:51:50;;;;;;;0.40;0.40;;;4.30;99.90;;;;;;5042010;28;20203;-81
2023/11/22 01:54:21;;;;;;;0.50;0.50;;;4.30;99.90;;;;;;5042504;28;20202;-81
2023/11/22 01:56:50;;;;;;;0.50;0.40;;;4.40;99.90;;;;;;5034708;28;20298;-80
2023/11/22 01:59:18;;;;;;;0.75;0.75;;;4.40;99.90;;;;;;5042567;28;20195;-81
2023/11/22 02:01:45;;;;;;;0.50;0.50;;;4.40;99.90;;;;;;5034625;28;20199;-81
2023/11/22 02:04:13;;;;;;;0.50;0.40;;;4.50;99.90;;;;;;5045897;28;20199;-81
2023/11/22 02:06:40;;;;;;;0.50;0.50;;;4.50;99.90;;;;;;5042831;28;20630;-81
2023/11/22 02:09:13;;;;;;;0.50;0.40;;;4.60;99.90;;;;;;5049634;28;20195;-81
2023/11/22 02:11:41;;;;;;;0.50;0.40;;;4.60;99.90;;;;;;5043979;28;20696;-81
2023/11/22 02:14:09;;;;;;;0.50;0.40;;;4.60;99.90;;;;;;5042668;28;20655;-82
2023/11/22 02:16:37;;;;;;;0.70;0.70;;;4.60;99.90;;;;;;5044242;28;20220;-82
2023/11/22 02:19:07;;;;;;;0.50;0.40;;;4.60;99.90;;;;;;5045748;28;20682;-81
2023/11/22 02:21:33;;;;;;;0.50;0.40;;;4.60;99.90;;;;;;5044228;28;20225;-81
2023/11/22 02:24:02;;;;;;;0.50;0.50;;;4.70;99.90;;;;;;5042781;28;20202;-81
2023/11/22 02:26:30;;;;;;;1.52;1.45;;;4.70;99.90;;;;;;5043733;28;20246;-81
2023/11/22 02:28:58;;;;;;;0.50;0.50;;;4.70;99.90;;;;;;5046473;28;20206;-81
2023/11/22 02:31:27;;;;;;;0.50;0.40;;;4.60;99.90;;;;;;5037755;28;20215;-81
2023/11/22 02:33:55;;;;;;;0.57;0.57;;;4.60;99.90;;;;;;5045491;28;20203;-81
2023/11/22 02:36:22;;;;;;;0.45;0.40;;;4.60;99.90;;;;;;5045752;28;20215;-81
2023/11/22 02:38:49;;;;;;;0.50;0.40;;;4.50;99.90;;;;;;5042877;28;20556;-81
2023/11/22 02:41:17;;;;;;;0.70;0.70;;;4.40;99.90;;;;;;5042768;28;20196;-81
2023/11/22 02:43:44;;;;;;;0.50;0.40;;;4.40;99.90;;;;;;5041947;28;20214;-81
2023/11/22 02:46:10;;;;;;;10.82;1.58;;;4.40;99.90;;;;;;5042356;28;20216;-81
2023/11/22 02:48:37;;;;;;;0.50;0.40;;;4.50;99.90;;;;;;5042263;28;20219;-81
2023/11/22 02:51:06;;;;;;;1.10;1.10;;;4.50;99.90;;;;;;5042199;28;20213;-82
2023/11/22 02:53:33;;;;;;;0.50;0.40;;;4.50;99.90;;;;;;5043739;28;20214;-82
2023/11/22 02:56:01;;;;;;;3.80;2.55;;;4.50;99.90;;;;;;5045678;28;20221;-81
2023/11/22 02:58:29;;;;;;;0.70;0.70;;;4.50;99.90;;;;;;5044584;28;20717;-81
2023/11/22 03:00:57;;;;;;;0.88;0.88;;;4.50;99.90;;;;;;5042347;28;20265;-83
2023/11/22 03:03:24;;;;;;;3.35;1.85;;;4.40;99.90;;;;;;5042493;28;20241;-80
2023/11/22 03:05:51;;;;;;;0.40;0.40;;;4.50;99.90;;;;;;5034533;28;20195;-81
2023/11/22 03:08:17;;;;;;;0.60;0.60;;;4.40;99.90;;;;;;5042918;28;20640;-81
2023/11/22 03:10:43;;;;;;;0.90;0.90;;;4.40;99.90;;;;;;5044627;28;20204;-81
2023/11/22 03:13:10;;;;;;;0.50;0.40;;;4.50;99.90;;;;;;5039635;28;20200;-82
2023/11/22 03:15:38;;;;;;;0.50;0.40;;;4.60;99.90;;;;;;5043263;28;20215;-82
2023/11/22 03:18:06;;;;;;;0.50;0.43;;;4.60;99.90;;;;;;5045895;28;20219;-81
2023/11/22 03:20:33;;;;;;;0.50;0.40;;;4.60;99.90;;;;;;5048496;28;20655;-82
2023/11/22 03:23:00;;;;;;;0.50;0.40;;;4.60;99.90;;;;;;5045879;28;20207;-82
2023/11/22 03:25:26;;;;;;;0.50;0.40;;;4.60;99.90;;;;;;5053550;28;20196;-81
2023/11/22 03:27:53;;;;;;;4.75;2.58;;;4.60;99.90;;;;;;5045929;28;20217;-81
2023/11/22 03:30:20;;;;;;;1.98;1.88;;;4.60;99.90;;;;;;5045707;28;20206;-81
2023/11/22 03:32:49;;;;;;;0.50;0.40;;;4.60;99.90;;;;;;5048276;28;20256;-81
2023/11/22 03:35:16;;;;;;;0.50;0.40;;;4.50;99.90;;;;;;5049153;28;20269;-82
2023/11/22 03:37:43;;;;;;;0.50;0.40;;;4.30;99.90;;;;;;5046165;28;20223;-81
2023/11/22 03:40:11;;;;;;;0.50;0.40;;;4.20;99.90;;;;;;5044961;28;20618;-81
2023/11/22 03:42:39;;;;;;;0.50;0.40;;;4.10;99.90;;;;;;5046243;28;20250;-82
2023/11/22 03:45:07;;;;;;;0.50;0.40;;;4.00;99.90;;;;;;5048474;28;20191;-82
2023/11/22 03:47:33;;;;;;;0.50;0.40;;;3.90;99.90;;;;;;5048202;28;20227;-82
2023/11/22 03:50:01;;;;;;;0.60;0.60;;;3.80;99.90;;;;;;5048511;28;20199;-80
2023/11/22 03:52:28;;;;;;;0.50;0.50;;;3.70;99.90;;;;;;5047712;28;20200;-81
2023/11/22 03:54:57;;;;;;;0.50;0.40;;;3.60;99.90;;;;;;5047771;28;20209;-80
2023/11/22 03:57:23;;;;;;;0.60;0.60;;;3.50;99.90;;;;;;5047021;28;20751;-81
2023/11/22 03:59:50;;;;;;;0.50;0.40;;;3.40;99.90;;;;;;5043641;28;20214;-80
2023/11/22 04:02:17;;;;;;;0.70;0.70;;;3.40;99.90;;;;;;5043195;28;20659;-80
2023/11/22 04:04:45;;;;;;;0.60;0.60;;;3.30;99.90;;;;;;5044652;28;20214;-81
2023/11/22 04:07:13;;;;;;;0.50;0.50;;;3.30;99.90;;;;;;5046519;28;20854;-80
2023/11/22 04:09:39;;;;;;;0.50;0.45;;;3.20;99.90;;;;;;5045414;28;20203;-80
2023/11/22 04:12:07;;;;;;;0.50;0.40;;;3.20;99.90;;;;;;5043201;28;20196;-80
2023/11/22 04:14:33;;;;;;;0.50;0.40;;;3.10;99.90;;;;;;5043792;28;20290;-81
2023/11/22 04:17:00;;;;;;;0.50;0.40;;;3.10;99.90;;;;;;5046194;28;20225;-82
2023/11/22 04:19:27;;;;;;;0.50;0.40;;;3.00;99.90;;;;;;5046943;28;20199;-81
2023/11/22 04:21:54;;;;;;;0.50;0.40;;;3.00;99.90;;;;;;5043918;28;20192;-80
2023/11/22 04:24:22;;;;;;;0.52;0.52;;;2.90;99.90;;;;;;5044145;28;20191;-82
2023/11/22 04:26:49;;;;;;;4.30;3.45;;;2.90;99.90;;;;;;5045644;28;20251;-78
2023/11/22 04:29:16;;;;;;;1.27;1.23;;;2.90;99.90;;;;;;5046869;28;20194;-81
2023/11/22 04:31:42;;;;;;;0.50;0.40;;;2.90;99.90;;;;;;5044055;28;20786;-79
2023/11/22 04:34:09;;;;;;;0.50;0.40;;;2.90;99.90;;;;;;5044546;28;20529;-82
2023/11/22 04:36:37;;;;;;;0.50;0.40;;;2.90;99.90;;;;;;5043782;28;20223;-81
2023/11/22 04:39:04;;;;;;;0.50;0.40;;;2.90;99.90;;;;;;5047318;28;20210;-81
2023/11/22 04:41:32;;;;;;;0.75;0.75;;;2.80;99.90;;;;;;5047463;28;20210;-80
2023/11/22 04:43:59;;;;;;;0.50;0.40;;;2.80;99.90;;;;;;5035886;28;20196;-80
2023/11/22 04:46:26;;;;;;;0.50;0.40;;;2.80;99.90;;;;;;5043334;28;20214;-81
2023/11/22 04:48:52;;;;;;;0.85;0.85;;;2.80;99.90;;;;;;5043667;28;20227;-80
2023/11/22 04:51:19;;;;;;;0.50;0.40;;;2.80;99.90;;;;;;5044206;28;20206;-79
2023/11/22 04:53:46;;;;;;;0.50;0.40;;;2.80;99.90;;;;;;5045313;28;20204;-81
2023/11/22 04:56:13;;;;;;;0.45;0.40;;;2.80;99.90;;;;;;5046617;28;20218;-82
2023/11/22 04:58:41;;;;;;;0.50;0.40;;;2.80;99.90;;;;;;5045764;28;20219;-80
2023/11/22 05:01:09;;;;;;;0.50;0.40;;;2.80;99.90;;;;;;5043011;28;20204;-80
2023/11/22 05:03:37;;;;;;;4.20;1.63;;;2.80;99.90;;;;;;5043499;28;20262;-82
2023/11/22 05:06:04;;;;;;;0.70;0.70;;;2.80;99.90;;;;;;5042409;28;20559;-80
2023/11/22 05:08:31;;;;;;;0.50;0.40;;;2.80;99.90;;;;;;5051419;28;20682;-79
2023/11/22 05:10:58;;;;;;;0.50;0.40;;;2.70;99.90;;;;;;5043493;28;20245;-81
2023/11/22 05:13:25;;;;;;;0.50;0.40;;;2.70;99.90;;;;;;5043489;28;20254;-80
2023/11/22 05:15:53;;;;;;;0.50;0.40;;;2.60;99.90;;;;;;5044959;28;20712;-81
2023/11/22 05:18:21;;;;;;;0.50;0.40;;;2.60;99.90;;;;;;5046926;28;20218;-80
2023/11/22 05:20:48;;;;;;;0.73;0.73;;;2.60;99.90;;;;;;5044969;28;20294;-81
2023/11/22 05:23:15;;;;;;;0.47;0.40;;;2.50;99.90;;;;;;5043345;28;20207;-79
2023/11/22 05:25:42;;;;;;;0.47;0.40;;;2.60;99.90;;;;;;5043452;28;20192;-81
2023/11/22 05:28:09;;;;;;;0.50;0.40;;;2.50;99.90;;;;;;5045790;28;20686;-79
2023/11/22 05:30:35;;;;;;;1.73;1.63;;;2.50;99.90;;;;;;5046723;28;20290;-79
2023/11/22 05:33:04;;;;;;;0.40;0.40;;;2.50;99.90;;;;;;5035992;28;20200;-82
2023/11/22 05:35:30;;;;;;;0.50;0.40;;;2.50;99.90;;;;;;5042849;28;20203;-80
2023/11/22 05:37:57;;;;;;;0.50;0.40;;;2.40;99.90;;;;;;5045555;28;20235;-79
2023/11/22 05:40:25;;;;;;;0.50;0.40;;;2.40;99.90;;;;;;5046340;28;20196;-79
2023/11/22 05:42:52;;;;;;;0.50;0.40;;;2.40;99.90;;;;;;5043981;28;20199;-79
2023/11/22 05:45:18;;;;;;;0.50;0.40;;;2.30;99.90;;;;;;5043306;28;20200;-82
2023/11/22 05:47:45;;;;;;;0.50;0.40;;;2.30;99.90;;;;;;5043571;28;20233;-81
2023/11/22 05:50:14;;;;;;;0.50;0.45;;;2.30;99.90;;;;;;5045556;28;20677;-80
2023/11/22 05:52:40;;;;;;;1.90;1.80;;;2.30;99.90;;;;;;5045817;28;20572;-79
2023/11/22 05:55:08;;;;;;;0.50;0.40;;;2.20;99.90;;;;;;5041760;28;20202;-79
2023/11/22 05:57:35;;;;;;;0.50;0.40;;;2.20;99.90;;;;;;5043030;28;20223;-80
2023/11/22 06:00:02;;;;;;;0.50;0.40;;;2.20;99.90;;;;;;5044417;28;20245;-80
2023/11/22 06:02:29;;;;;;;0.50;0.40;;;2.20;99.90;;;;;;5044913;28;20206;-80
2023/11/22 06:04:56;;;;;;;0.50;0.40;;;2.20;99.90;;;;;;5042582;28;20281;-80
2023/11/22 06:07:24;;;;;;;0.50;0.50;;;2.10;99.90;;;;;;5039669;28;20219;-80
2023/11/22 06:09:50;;;;;;;0.50;0.40;;;2.10;99.90;;;;;;5043141;28;20210;-81
2023/11/22 06:12:19;;;;;;;0.50;0.50;;;2.10;99.90;;;;;;5042461;28;20195;-81
2023/11/22 06:14:46;;;;;;;0.50;0.40;;;2.00;99.90;;;;;;5042977;28;20556;-80
2023/11/22 06:17:14;;;;;;;0.93;0.93;;;2.00;99.90;;;;;;5044593;28;20218;-80
2023/11/22 06:19:41;;;;;;;0.50;0.50;;;1.90;99.90;;;;;;5045080;28;20203;-80
2023/11/22 06:22:08;;;;;;;3.92;3.72;;;1.90;99.90;;;;;;5035072;28;20196;-80
2023/11/22 06:24:36;;;;;;;0.50;0.40;;;1.90;99.90;;;;;;5043481;28;20207;-80
2023/11/22 06:27:03;;;;;;;0.50;0.40;;;1.90;99.90;;;;;;5050959;28;20718;-80
2023/11/22 06:29:30;;;;;;;0.50;0.50;;;1.80;99.90;;;;;;5043599;28;20636;-81
2023/11/22 06:31:57;;;;;;;0.50;0.40;;;1.80;99.90;;;;;;5048072;28;20200;-81
2023/11/22 06:34:23;;;;;;;0.50;0.40;;;1.80;99.90;;;;;;5047656;28;20217;-81
2023/11/22 06:36:50;;;;;;;0.50;0.40;;;1.80;99.90;;;;;;5046039;28;20236;-80
2023/11/22 06:39:17;;;;;;;1.80;1.70;;;1.80;99.90;;;;;;5043389;28;20254;-81
2023/11/22 06:41:45;;;;;;;0.70;0.70;;;1.80;99.90;;;;;;5043393;28;20199;-80
2023/11/22 06:44:13;;;;;;;0.52;0.52;;;1.80;99.90;;;;;;5046649;28;20199;-80
2023/11/22 06:46:39;;;;;;;1.02;1.02;;;1.80;99.90;;;;;;5047692;28;20215;-79
2023/11/22 06:49:06;;;;;;;0.50;0.50;;;1.80;99.90;;;;;;5044246;28;20204;-81
2023/11/22 06:51:33;;;;;;;1.08;1.08;;;1.70;99.90;;;;;;5044443;28;20203;-80
2023/11/22 06:54:00;;;;;;;0.47;0.40;;;1.70;99.90;;;;;;5046111;28;20206;-80
2023/11/22 06:56:26;;;;;;;0.60;0.60;;;1.70;99.90;;;;;;5056055;28;20321;-80
2023/11/22 06:58:55;;;;;;;0.50;0.40;;;1.70;99.90;;;;;;5051413;28;20314;-81
2023/11/22 07:01:25;;;;;;;0.50;0.40;;;1.70;99.90;;;;;;5054058;28;20199;-80
2023/11/22 07:03:52;;;;;;;0.60;0.60;;;1.70;99.90;;;;;;5053667;28;20210;-79
2023/11/22 07:06:22;;;;;;;0.50;0.40;;;1.70;99.90;;;;;;5048753;28;20218;-78
2023/11/22 07:08:49;;;;;;;0.50;0.40;;;1.70;99.90;;;;;;5049814;28;20200;-80
2023/11/22 07:11:23;;;;;;;0.77;0.77;;;1.60;99.90;;;;;;5059352;28;20196;-80
2023/11/22 07:13:50;;;;;;;0.50;0.40;;;1.70;99.90;;;;;;5051461;28;20206;-79
2023/11/22 07:16:18;;;;;;;0.50;0.40;;;1.70;99.90;;;;;;5055121;28;20638;-80
2023/11/22 07:18:46;;;;;;;2.05;1.05;;;1.60;99.90;;;;;;5055325;28;20269;-79
2023/11/22 07:21:12;;;;;;;0.50;0.40;;;1.70;99.90;;;;;;5050052;28;20192;-80
2023/11/22 07:23:39;;;;;;;0.65;0.65;;;1.70;99.90;;;;;;5049085;28;20685;-80
2023/11/22 07:26:07;;;;;;;0.45;0.40;;;1.70;99.90;;;;;;5057173;28;20227;-81
2023/11/22 07:28:35;;;;;;;0.50;0.40;;;1.70;99.90;;;;;;5052738;28;20249;-81
2023/11/22 07:31:02;;;;;;;0.73;0.70;;;1.80;99.90;;;;;;5050051;28;20235;-80
2023/11/22 07:33:30;;;;;;;2.10;2.00;;;1.80;99.90;;;;;;5048180;28;20207;-79
2023/11/22 07:35:58;;;;;;;0.50;0.40;;;1.90;99.90;;;;;;5053106;28;20207;-79
2023/11/22 07:38:25;;;;;;;0.50;0.40;;;2.00;99.90;;;;;;5062213;28;20247;-79
2023/11/22 07:40:52;;;;;;;0.50;0.40;;;2.00;99.90;;;;;;5053566;28;20203;-80
2023/11/22 07:43:19;;;;;;;1.27;1.05;;;2.20;99.90;;;;;;5048963;28;20263;-80
2023/11/22 07:45:47;;;;;;;0.50;0.50;;;2.30;99.90;;;;;;5041469;28;20204;-80
2023/11/22 07:48:14;;;;;;;0.47;0.40;;;2.50;99.90;;;;;;5051997;28;20218;-80
2023/11/22 07:50:43;;;;;;;0.50;0.50;;;2.70;99.90;;;;;;5050750;28;20259;-81
2023/11/22 07:53:11;;;;;;;0.50;0.40;;;3.00;99.90;;;;;;5039408;28;20204;-80
2023/11/22 07:55:38;;;;;;;0.63;0.63;;;3.20;99.90;;;;;;5048374;28;20211;-80
2023/11/22 07:58:07;;;;;;;0.93;0.88;;;3.40;99.90;;;;;;5056529;28;20226;-81
2023/11/22 08:00:34;;;;;;;0.50;0.50;;;3.70;99.90;;;;;;5047478;28;20195;-79
2023/11/22 08:03:02;;;;;;;0.50;0.40;;;3.80;99.90;;;;;;5049075;28;20204;-80
2023/11/22 08:05:34;;;;;;;0.50;0.40;;;4.20;99.90;;;;;;5050437;28;20465;-80
2023/11/22 08:08:06;;;;;;;0.50;0.40;;;5.00;99.90;;;;;;5049522;28;20222;-79
2023/11/22 08:10:34;;;;;;;1.27;1.20;;;6.00;99.90;;;;;;5053899;28;20210;-81
2023/11/22 08:13:02;;;;;;;0.50;0.40;;;7.00;99.90;;;;;;5050770;28;20672;-81
2023/11/22 08:15:28;;;;;;;1.80;1.70;;;7.40;99.90;;;;;;5049943;28;20199;-80
2023/11/22 08:17:56;;;;;;;0.60;0.55;;;7.80;99.90;;;;;;5048957;28;20246;-81
2023/11/22 08:20:25;;;;;;;0.70;0.60;;;8.50;99.90;;;;;;5047064;28;20195;-80
2023/11/22 08:22:52;;;;;;;0.50;0.40;;;9.00;99.90;;;;;;5046416;28;20235;-81
2023/11/22 08:25:20;;;;;;;0.50;0.40;;;9.20;99.90;;;;;;5037433;28;20647;-82
2023/11/22 08:27:46;;;;;;;0.63;0.55;;;9.10;99.90;;;;;;5045422;28;20216;-80
2023/11/22 08:30:15;;;;;;;0.50;0.50;;;8.70;99.90;;;;;;5044907;28;20198;-80
2023/11/22 08:32:42;;;;;;;0.75;0.75;;;8.30;99.90;;;;;;5045312;28;20203;-80
2023/11/22 08:35:10;;;;;;;0.60;0.60;;;8.20;99.90;;;;;;5045438;28;20667;-79
2023/11/22 08:37:37;;;;;;;0.50;0.40;;;8.50;99.90;;;;;;5045635;28;20220;-80
2023/11/22 08:40:06;;;;;;;1.33;0.95;;;8.80;99.90;;;;;;5046341;28;20199;-80
2023/11/22 08:42:35;;;;;;;0.50;0.40;;;9.00;99.90;;;;;;5049222;28;20201;-80
2023/11/22 08:45:02;;;;;;;1.43;1.33;;;9.50;99.90;;;;;;5047437;28;20293;-79
2023/11/22 08:47:29;;;;;;;0.50;0.40;;;10.30;99.90;;;;;;5041262;28;20540;-79
2023/11/22 08:49:57;;;;;;;0.50;0.40;;;10.90;99.90;;;;;;5047446;28;20786;-79
2023/11/22 08:52:24;;;;;;;2.73;1.47;;;11.20;99.90;;;;;;5044738;28;20474;-79
2023/11/22 08:54:51;;;;;;;0.80;0.80;;;11.30;99.90;;;;;;5052337;28;20967;-80
2023/11/22 08:57:18;;;;;;;0.50;0.40;;;11.80;99.90;;;;;;5044645;28;20511;-80
2023/11/22 08:59:47;;;;;;;0.90;0.80;;;12.00;99.90;;;;;;5045228;28;20446;-80
2023/11/22 09:02:14;;;;;;;0.50;0.40;;;12.30;99.90;;;;;;5046451;28;20942;-80
2023/11/22 09:04:42;;;;;;;0.87;0.80;;;12.70;99.90;;;;;;5047900;28;20828;-80
2023/11/22 09:07:10;;;;;;;0.60;0.60;;;13.00;99.90;;;;;;5045244;28;20488;-80
2023/11/22 09:09:37;;;;;;;0.80;0.80;;;12.90;99.90;;;;;;5066697;22;20552;-79
2023/11/22 09:12:12;;;;;;;0.70;0.70;;;12.60;99.90;;;;;;5065506;28;20531;-80
2023/11/22 09:14:40;;;;;;;0.50;0.40;;;12.40;99.90;;;;;;5062332;28;20848;-79
2023/11/22 09:17:09;;;;;;;0.70;0.50;;;12.30;99.90;;;;;;5055221;28;20568;-80
2023/11/22 09:19:37;;;;;;;0.50;0.40;;;12.00;99.90;;;;;;5055956;28;20461;-79
2023/11/22 09:22:05;;;;;;;0.50;0.43;;;11.90;99.90;;;;;;5055658;28;20465;-79
2023/11/22 09:24:33;;;;;;;1.37;1.27;;;11.60;99.90;;;;;;5055697;28;20472;-80
2023/11/22 09:27:00;;;;;;;0.50;0.50;;;11.30;99.90;;;;;;5047391;28;20443;-79
2023/11/22 09:29:27;;;;;;;0.83;0.83;;;11.00;99.90;;;;;;5055454;28;20461;-79
2023/11/22 09:31:54;;;;;;;0.50;0.40;;;10.90;99.90;;;;;;5055365;28;20505;-80
2023/11/22 09:34:22;;;;;;;0.50;0.40;;;10.60;99.90;;;;;;5055118;28;20444;-80
2023/11/22 09:36:49;;;;;;;2.90;2.70;;;10.20;99.90;;;;;;5054896;28;20478;-80
2023/11/22 09:39:21;;;;;;;0.60;0.60;;;10.00;99.90;;;;;;5055122;28;20461;-79
2023/11/22 09:41:48;;;;;;;1.50;0.80;;;9.70;99.90;;;;;;5055573;28;20956;-79
2023/11/22 09:44:16;;;;;;;2.72;2.55;;;9.50;99.90;;;;;;5055044;28;20694;-79
2023/11/22 09:46:43;;;;;;;1.33;1.23;;;9.10;99.90;;;;;;5054589;28;20309;-80
2023/11/22 09:49:16;;;;;;;0.50;0.40;;;8.70;99.90;;;;;;5055032;28;20244;-80
2023/11/22 09:51:45;;;;;;;0.50;0.40;;;8.50;99.90;;;;;;5054935;28;20227;-77
2023/11/22 09:54:15;;;;;;;0.70;0.70;;;8.40;99.90;;;;;;5054941;28;20196;-80
2023/11/22 09:56:50;;;;;;;0.50;0.40;;;8.30;99.90;;;;;;5054605;28;20198;-80
2023/11/22 09:59:19;;;;;;;0.50;0.40;;;8.20;99.90;;;;;;5055060;28;20238;-80
2023/11/22 10:01:46;;;;;;;0.50;0.40;;;8.20;99.90;;;;;;5054686;28;20195;-79
2023/11/22 10:04:13;;;;;;;0.55;0.52;;;8.10;99.90;;;;;;5054578;28;20206;-79
2023/11/22 10:06:40;;;;;;;0.50;0.40;;;8.00;99.90;;;;;;5054449;28;20195;-79
2023/11/22 10:09:09;;;;;;;0.50;0.50;;;7.90;99.90;;;;;;5054418;28;20233;-79
2023/11/22 10:11:38;;;;;;;0.60;0.60;;;7.70;99.90;;;;;;5054663;28;20191;-79
2023/11/22 10:14:05;;;;;;;0.50;0.40;;;7.60;99.90;;;;;;5054400;28;20198;-78
2023/11/22 10:16:32;;;;;;;0.50;0.40;;;7.60;99.90;;;;;;5055570;28;20658;-80
2023/11/22 10:18:59;;;;;;;0.50;0.50;;;7.60;99.90;;;;;;5047243;28;20224;-80
2023/11/22 10:21:28;;;;;;;1.77;1.40;;;7.60;99.90;;;;;;5054554;28;20207;-80
2023/11/22 10:23:56;;;;;;;0.70;0.70;;;7.60;99.90;;;;;;5054952;28;20195;-79
2023/11/22 10:26:24;;;;;;;0.60;0.50;;;7.60;99.90;;;;;;5054481;28;20195;-79
2023/11/22 10:28:52;;;;;;;0.50;0.40;;;7.60;99.90;;;;;;5054191;28;20218;-78
2023/11/22 10:31:19;;;;;;;0.50;0.40;;;7.70;99.90;;;;;;5054487;28;20237;-79
2023/11/22 10:33:46;;;;;;;0.50;0.40;;;7.70;99.90;;;;;;5054375;28;20202;-80
2023/11/22 10:36:14;;;;;;;0.50;0.40;;;7.90;99.90;;;;;;5046202;28;20211;-80
2023/11/22 10:38:42;;;;;;;0.95;0.95;;;8.00;99.90;;;;;;5054683;28;20233;-79
2023/11/22 10:41:10;;;;;;;0.50;0.40;;;8.00;99.90;;;;;;5054244;28;20199;-79
2023/11/22 10:43:39;;;;;;;0.50;0.40;;;8.10;99.90;;;;;;5053545;28;20195;-79
2023/11/22 10:46:06;;;;;;;0.50;0.50;;;8.30;99.90;;;;;;5053858;28;20558;-79
2023/11/22 10:48:33;;;;;;;0.50;0.40;;;8.30;99.90;;;;;;5054412;28;20233;-79
2023/11/22 10:51:03;;;;;;;0.60;0.60;;;8.40;99.90;;;;;;5053395;28;20211;-80
2023/11/22 10:53:37;;;;;;;0.50;0.43;;;8.30;99.90;;;;;;5053409;28;20490;-78
2023/11/22 10:56:11;;;;;;;0.50;0.40;;;8.30;99.90;;;;;;5054809;28;20195;-79
2023/11/22 10:58:45;;;;;;;0.85;0.85;;;8.40;99.90;;;;;;5054985;28;20214;-79
2023/11/22 11:01:12;;;;;;;0.50;0.40;;;8.60;99.90;;;;;;5054697;28;20274;-79
2023/11/22 11:03:43;;;;;;;0.50;0.40;;;8.60;99.90;;;;;;5055484;28;20282;-79
2023/11/22 11:06:14;;;;;;;0.50;0.40;;;8.60;99.90;;;;;;5053985;28;20202;-80
2023/11/22 11:08:45;;;;;;;0.50;0.40;;;8.70;99.90;;;;;;5053962;28;20222;-77
2023/11/22 11:11:12;;;;;;;0.50;0.40;;;8.70;99.90;;;;;;5053896;28;20191;-79
2023/11/22 11:13:40;;;;;;;0.50;0.40;;;8.50;99.90;;;;;;5053547;28;20805;-79
2023/11/22 11:16:08;;;;;;;0.50;0.40;;;8.50;99.90;;;;;;5054731;28;20191;-80
2023/11/22 11:18:36;;;;;;;0.50;0.40;;;8.60;99.90;;;;;;5053771;28;20215;-79
2023/11/22 11:21:11;;;;;;;0.50;0.40;;;8.40;99.90;;;;;;5053459;28;20196;-79
2023/11/22 11:23:41;;;;;;;0.90;0.77;;;8.40;99.90;;;;;;5053787;28;20670;-78
2023/11/22 11:26:16;;;;;;;0.50;0.40;;;8.40;99.90;;;;;;5053714;28;20679;-79
2023/11/22 11:28:47;;;;;;;1.50;1.50;;;8.30;99.90;;;;;;5053553;28;20813;-78
2023/11/22 11:31:15;;;;;;;0.60;0.60;;;8.30;99.90;;;;;;5052532;28;20187;-78
2023/11/22 11:33:55;;;;;;;0.50;0.40;;;8.40;99.90;;;;;;5053276;28;20913;-79
2023/11/22 11:36:24;;;;;;;0.50;0.40;;;8.30;99.90;;;;;;5053334;28;20642;-79
2023/11/22 11:38:52;;;;;;;0.50;0.40;;;8.30;99.90;;;;;;5053866;28;20218;-77
2023/11/22 11:41:19;;;;;;;0.50;0.40;;;8.40;99.90;;;;;;5057098;28;20191;-80
2023/11/22 11:43:49;;;;;;;0.60;0.60;;;8.50;99.90;;;;;;5057741;28;20437;-79
2023/11/22 11:46:16;;;;;;;0.50;0.40;;;8.70;99.90;;;;;;5057727;28;20214;-79
2023/11/22 11:48:44;;;;;;;0.50;0.40;;;8.80;99.90;;;;;;5057941;28;20203;-80
2023/11/22 11:51:14;;;;;;;0.95;0.95;;;8.70;99.90;;;;;;5057229;28;20198;-79
2023/11/22 11:53:41;;;;;;;0.50;0.40;;;8.80;99.90;;;;;;5057608;28;20218;-80
2023/11/22 11:56:08;;;;;;;0.50;0.40;;;8.80;99.90;;;;;;5058115;28;20433;-80
2023/11/22 11:58:35;;;;;;;0.50;0.40;;;8.90;99.90;;;;;;5057264;28;20215;-79
2023/11/22 12:01:04;;;;;;;0.50;0.40;;;8.90;99.90;;;;;;5057840;28;20187;-80
2023/11/22 12:03:31;;;;;;;0.50;0.40;;;8.80;99.90;;;;;;5058271;28;20202;-81
2023/11/22 12:05:58;;;;;;;0.60;0.60;;;8.60;99.90;;;;;;5057979;28;20187;-80
2023/11/22 12:08:25;;;;;;;0.95;0.95;;;8.40;99.90;;;;;;5057537;28;20215;-80
2023/11/22 12:10:52;;;;;;;0.50;0.40;;;8.30;99.90;;;;;;5057961;28;20191;-80
2023/11/22 12:13:21;;;;;;;0.65;0.65;;;8.10;99.90;;;;;;5057400;28;20273;-79
2023/11/22 12:15:48;;;;;;;0.50;0.40;;;7.80;99.90;;;;;;5057643;28;20199;-79
2023/11/22 12:18:16;;;;;;;0.88;0.88;;;7.70;99.90;;;;;;5058220;28;20586;-80
2023/11/22 12:20:54;;;;;;;0.65;0.65;;;7.40;99.90;;;;;;5057920;28;20198;-77
2023/11/22 12:23:21;;;;;;;2.45;1.45;;;7.20;99.90;;;;;;5056309;28;20194;-79
2023/11/22 12:25:49;;;;;;;0.50;0.50;;;7.10;99.90;;;;;;5056085;28;20217;-79
2023/11/22 12:28:18;;;;;;;0.50;0.40;;;7.00;99.90;;;;;;5056708;28;20613;-79
2023/11/22 12:30:46;;;;;;;0.50;0.40;;;7.00;99.90;;;;;;5057094;28;20200;-78
2023/11/22 12:33:13;;;;;;;0.80;0.80;;;7.10;99.90;;;;;;5048879;28;20188;-79
2023/11/22 12:35:41;;;;;;;0.50;0.40;;;7.30;99.90;;;;;;5057249;28;20200;-79
2023/11/22 12:38:08;;;;;;;0.50;0.40;;;7.50;99.90;;;;;;5055809;28;20219;-79
2023/11/22 12:40:35;;;;;;;0.60;0.60;;;7.80;99.90;;;;;;5056113;28;20199;-78
2023/11/22 12:43:03;;;;;;;0.50;0.50;;;8.10;99.90;;;;;;5055416;28;20195;-79
2023/11/22 12:45:33;;;;;;;0.50;0.40;;;8.00;99.90;;;;;;5055444;28;20273;-79
2023/11/22 12:48:00;;;;;;;3.95;1.60;;;8.00;99.90;;;;;;5055630;28;20306;-80
2023/11/22 12:50:31;;;;;;;0.50;0.40;;;7.90;99.90;;;;;;5054988;28;20195;-80
2023/11/22 12:53:00;;;;;;;0.50;0.40;;;8.10;99.90;;;;;;5054886;28;20237;-79
2023/11/22 12:55:26;;;;;;;0.50;0.40;;;8.10;99.90;;;;;;5055426;28;20203;-79
2023/11/22 12:58:02;;;;;;;0.50;0.50;;;8.10;99.90;;;;;;5055464;28;20211;-80